Mike Planche — WDC6331 — position and weather

sailwx.info

Track history (hours):
 
Tides and Currents Weather Stations Pressure Air Temp Water Temp Dewpoint Dewpoint Depression Visibility Wind Speed Wind Dir Waves Ship Positions

Mike Planche

Owner: ACL Transportation Services LLC, Jeffersonville, IN. More information available from US FCC via Universal Licensing System and Coast Guard Vessel Documentation Center.

Last reported at 2015-Jan-30 04:16 UTC. Time now 2015-Jan-31 05:33 UTC.
Position N 29°13' W 095°02'.

Length 25 m; draft 3 m.

Type: Towing. MMSI: 367054810.

Date/timePositionNaut miles runAvg speedWind from/ knotsBaromVisibWave heightAir tempDewpointWater temp
2015-Jan-30 04:16N 29°13' W 095°02'5 5.9
2015-Jan-30 03:29N 29°17' W 094°59'13 4.2
2015-Jan-30 00:28N 29°28' W 094°51'7 7.2
2015-Jan-29 23:33N 29°33' W 094°55'8 7.9
2015-Jan-29 22:33N 29°41' W 094°59'6 6.4
2015-Jan-29 21:33N 29°45' W 095°04'2 1.5
2015-Jan-29 20:31N 29°46' W 095°05'0 0.3
2015-Jan-29 19:28N 29°46' W 095°05'5 5.0
2015-Jan-29 18:33N 29°43' W 095°01'6 5.7
2015-Jan-29 17:33N 29°38' W 094°58'8 6.5
2015-Jan-29 16:16N 29°31' W 094°53'10 5.7
2015-Jan-29 14:32N 29°22' W 094°49'1 0.0
2015-Jan-28 08:12N 29°23' W 094°49'7 7.1
2015-Jan-28 07:12N 29°29' W 094°52'5 7.7
2015-Jan-28 06:33N 29°34' W 094°55'7 7.3
2015-Jan-28 05:33N 29°40' W 094°59'7 7.1
2015-Jan-28 04:33N 29°45' W 095°04'1 1.3
2015-Jan-28 03:31N 29°46' W 095°06'1 0.5
2015-Jan-28 01:33N 29°46' W 095°04'9 4.6
2015-Jan-27 23:32N 29°37' W 095°01'3 2.1
2015-Jan-27 22:08N 29°37' W 094°58'4 7.4
2015-Jan-27 21:32N 29°41' W 094°59'6 5.9
2015-Jan-27 20:33N 29°45' W 095°04'2 1.7
2015-Jan-27 19:33N 29°46' W 095°06'1 1.0
2015-Jan-27 18:34N 29°45' W 095°06'0 0.2
2015-Jan-27 17:31N 29°45' W 095°06'0 0.0
2015-Jan-27 16:31N 29°45' W 095°06'0 0.0
2015-Jan-27 15:28N 29°45' W 095°06'0 0.0
2015-Jan-27 14:31N 29°45' W 095°06'1 0.1
2015-Jan-27 06:23N 29°46' W 095°06'0 0.0
2015-Jan-27 05:26N 29°46' W 095°06'0 0.0
2015-Jan-27 04:32N 29°46' W 095°06'1 0.9
2015-Jan-27 03:33N 29°45' W 095°06'1 1.3
2015-Jan-27 02:30N 29°46' W 095°05'0 0.0
2015-Jan-27 01:33N 29°46' W 095°05'1 0.7
2015-Jan-27 00:31N 29°46' W 095°06'0 0.0
2015-Jan-26 23:31N 29°46' W 095°06'0 0.0
2015-Jan-26 22:33N 29°46' W 095°06'1 0.8
2015-Jan-26 21:34N 29°46' W 095°05'0 0.0
2015-Jan-26 20:32N 29°46' W 095°05'0 0.0
2015-Jan-26 19:32N 29°46' W 095°05'0 0.0
2015-Jan-26 18:29N 29°46' W 095°05'0 0.0
2015-Jan-26 17:32N 29°46' W 095°05'0 0.0
2015-Jan-26 16:32N 29°46' W 095°05'0 0.0
2015-Jan-26 15:32N 29°46' W 095°05'0 0.0
2015-Jan-26 14:32N 29°46' W 095°05'0 0.0
2015-Jan-26 13:29N 29°46' W 095°05'0 0.0
2015-Jan-26 06:20N 29°46' W 095°05'1 0.1
2015-Jan-26 01:14N 29°45' W 095°06'4 5.8
2015-Jan-26 00:33N 29°44' W 095°02'7 6.8
2015-Jan-25 23:33N 29°38' W 094°58'8 6.6
2015-Jan-25 22:16N 29°31' W 094°53'7 1.0
2015-Jan-25 15:21N 29°24' W 094°49'4 5.6
2015-Jan-25 14:33N 29°28' W 094°51'6 5.9
2015-Jan-25 13:33N 29°33' W 094°55'6 6.2
2015-Jan-25 12:33N 29°39' W 094°58'6 6.1
2015-Jan-25 11:33N 29°44' W 095°02'3 2.3
2015-Jan-25 10:06N 29°46' W 095°05'0 0.0
2015-Jan-25 09:27N 29°46' W 095°05'0 0.1
2015-Jan-25 08:28N 29°46' W 095°06'1 0.5
2015-Jan-25 07:06N 29°45' W 095°06'0 0.0
2015-Jan-25 05:33N 29°45' W 095°06'1 0.1
2015-Jan-24 22:26N 29°46' W 095°05'4 4.8
2015-Jan-24 21:33N 29°44' W 095°01'6 5.8
2015-Jan-24 20:33N 29°39' W 094°58'  
Track history (hours):
 
Tides and Currents Weather Stations Pressure Air Temp Water Temp Dewpoint Dewpoint Depression Visibility Wind Speed Wind Dir Waves Ship Positions

Mike Planche

Owner: ACL Transportation Services LLC, Jeffersonville, IN. More information available from US FCC via Universal Licensing System and Coast Guard Vessel Documentation Center.

Last reported at 2015-Jan-30 04:16 UTC. Time now 2015-Jan-31 05:33 UTC.
Position N 29°13' W 095°02'.

Length 25 m; draft 3 m.

Type: Towing. MMSI: 367054810.

Date/timePositionNaut miles runAvg speedWind from/ knotsBaromVisibWave heightAir tempDewpointWater temp
2015-Jan-30 04:16N 29°13' W 095°02'5 5.9
2015-Jan-30 03:29N 29°17' W 094°59'13 4.2
2015-Jan-30 00:28N 29°28' W 094°51'7 7.2
2015-Jan-29 23:33N 29°33' W 094°55'8 7.9
2015-Jan-29 22:33N 29°41' W 094°59'6 6.4
2015-Jan-29 21:33N 29°45' W 095°04'2 1.5
2015-Jan-29 20:31N 29°46' W 095°05'0 0.3
2015-Jan-29 19:28N 29°46' W 095°05'5 5.0
2015-Jan-29 18:33N 29°43' W 095°01'6 5.7
2015-Jan-29 17:33N 29°38' W 094°58'8 6.5
2015-Jan-29 16:16N 29°31' W 094°53'10 5.7
2015-Jan-29 14:32N 29°22' W 094°49'1 0.0
2015-Jan-28 08:12N 29°23' W 094°49'7 7.1
2015-Jan-28 07:12N 29°29' W 094°52'5 7.7
2015-Jan-28 06:33N 29°34' W 094°55'7 7.3
2015-Jan-28 05:33N 29°40' W 094°59'7 7.1
2015-Jan-28 04:33N 29°45' W 095°04'1 1.3
2015-Jan-28 03:31N 29°46' W 095°06'1 0.5
2015-Jan-28 01:33N 29°46' W 095°04'9 4.6
2015-Jan-27 23:32N 29°37' W 095°01'3 2.1
2015-Jan-27 22:08N 29°37' W 094°58'4 7.4
2015-Jan-27 21:32N 29°41' W 094°59'6 5.9
2015-Jan-27 20:33N 29°45' W 095°04'2 1.7
2015-Jan-27 19:33N 29°46' W 095°06'1 1.0
2015-Jan-27 18:34N 29°45' W 095°06'0 0.2
2015-Jan-27 17:31N 29°45' W 095°06'0 0.0
2015-Jan-27 16:31N 29°45' W 095°06'0 0.0
2015-Jan-27 15:28N 29°45' W 095°06'0 0.0
2015-Jan-27 14:31N 29°45' W 095°06'1 0.1
2015-Jan-27 06:23N 29°46' W 095°06'0 0.0
2015-Jan-27 05:26N 29°46' W 095°06'0 0.0
2015-Jan-27 04:32N 29°46' W 095°06'1 0.9
2015-Jan-27 03:33N 29°45' W 095°06'1 1.3
2015-Jan-27 02:30N 29°46' W 095°05'0 0.0
2015-Jan-27 01:33N 29°46' W 095°05'1 0.7
2015-Jan-27 00:31N 29°46' W 095°06'0 0.0
2015-Jan-26 23:31N 29°46' W 095°06'0 0.0
2015-Jan-26 22:33N 29°46' W 095°06'1 0.8
2015-Jan-26 21:34N 29°46' W 095°05'0 0.0
2015-Jan-26 20:32N 29°46' W 095°05'0 0.0
2015-Jan-26 19:32N 29°46' W 095°05'0 0.0
2015-Jan-26 18:29N 29°46' W 095°05'0 0.0
2015-Jan-26 17:32N 29°46' W 095°05'0 0.0
2015-Jan-26 16:32N 29°46' W 095°05'0 0.0
2015-Jan-26 15:32N 29°46' W 095°05'0 0.0
2015-Jan-26 14:32N 29°46' W 095°05'0 0.0
2015-Jan-26 13:29N 29°46' W 095°05'0 0.0
2015-Jan-26 06:20N 29°46' W 095°05'1 0.1
2015-Jan-26 01:14N 29°45' W 095°06'4 5.8
2015-Jan-26 00:33N 29°44' W 095°02'7 6.8
2015-Jan-25 23:33N 29°38' W 094°58'8 6.6
2015-Jan-25 22:16N 29°31' W 094°53'7 1.0
2015-Jan-25 15:21N 29°24' W 094°49'4 5.6
2015-Jan-25 14:33N 29°28' W 094°51'6 5.9
2015-Jan-25 13:33N 29°33' W 094°55'6 6.2
2015-Jan-25 12:33N 29°39' W 094°58'6 6.1
2015-Jan-25 11:33N 29°44' W 095°02'3 2.3
2015-Jan-25 10:06N 29°46' W 095°05'0 0.0
2015-Jan-25 09:27N 29°46' W 095°05'0 0.1
2015-Jan-25 08:28N 29°46' W 095°06'1 0.5
2015-Jan-25 07:06N 29°45' W 095°06'0 0.0
2015-Jan-25 05:33N 29°45' W 095°06'1 0.1
2015-Jan-24 22:26N 29°46' W 095°05'4 4.8
2015-Jan-24 21:33N 29°44' W 095°01'6 5.8
2015-Jan-24 20:33N 29°39' W 094°58'  

Dump ship's entire track history